sensor_id;sensor_type;location;lat;lon;timestamp;P1;durP1;ratioP1;P2;durP2;ratioP2
64986;SDS011;67903;52.108;9.358;2023-05-07T00:01:07;21.67;;;18.52;;
64986;SDS011;67903;52.108;9.358;2023-05-07T00:03:54;20.60;;;17.95;;
64986;SDS011;67903;52.108;9.358;2023-05-07T00:06:42;21.23;;;18.77;;
64986;SDS011;67903;52.108;9.358;2023-05-07T00:09:29;22.40;;;18.67;;
64986;SDS011;67903;52.108;9.358;2023-05-07T00:12:16;22.70;;;18.67;;
64986;SDS011;67903;52.108;9.358;2023-05-07T00:15:03;21.63;;;19.33;;
64986;SDS011;67903;52.108;9.358;2023-05-07T00:17:51;20.77;;;18.63;;
64986;SDS011;67903;52.108;9.358;2023-05-07T00:20:38;20.75;;;18.55;;
64986;SDS011;67903;52.108;9.358;2023-05-07T00:23:25;23.50;;;19.55;;
64986;SDS011;67903;52.108;9.358;2023-05-07T00:26:12;20.58;;;18.25;;
64986;SDS011;67903;52.108;9.358;2023-05-07T00:29:00;21.33;;;19.15;;
64986;SDS011;67903;52.108;9.358;2023-05-07T00:31:48;21.38;;;18.60;;
64986;SDS011;67903;52.108;9.358;2023-05-07T00:34:37;23.60;;;19.02;;
64986;SDS011;67903;52.108;9.358;2023-05-07T00:37:24;21.55;;;19.27;;
64986;SDS011;67903;52.108;9.358;2023-05-07T00:40:11;21.17;;;18.85;;
64986;SDS011;67903;52.108;9.358;2023-05-07T00:42:58;21.25;;;18.95;;
64986;SDS011;67903;52.108;9.358;2023-05-07T00:45:46;21.95;;;19.65;;
64986;SDS011;67903;52.108;9.358;2023-05-07T00:48:33;23.23;;;19.77;;
64986;SDS011;67903;52.108;9.358;2023-05-07T00:51:20;21.52;;;19.33;;
64986;SDS011;67903;52.108;9.358;2023-05-07T00:54:08;23.55;;;20.15;;
64986;SDS011;67903;52.108;9.358;2023-05-07T00:56:55;21.73;;;19.42;;
64986;SDS011;67903;52.108;9.358;2023-05-07T00:59:42;22.58;;;20.13;;
64986;SDS011;67903;52.108;9.358;2023-05-07T01:02:30;24.30;;;20.40;;
64986;SDS011;67903;52.108;9.358;2023-05-07T01:05:17;21.25;;;18.95;;
64986;SDS011;67903;52.108;9.358;2023-05-07T01:08:07;22.25;;;19.55;;
64986;SDS011;67903;52.108;9.358;2023-05-07T01:10:55;23.42;;;20.83;;
64986;SDS011;67903;52.108;9.358;2023-05-07T01:13:43;24.00;;;20.33;;
64986;SDS011;67903;52.108;9.358;2023-05-07T01:16:31;23.45;;;20.98;;
64986;SDS011;67903;52.108;9.358;2023-05-07T01:19:19;25.00;;;21.20;;
64986;SDS011;67903;52.108;9.358;2023-05-07T01:22:10;23.35;;;20.92;;
64986;SDS011;67903;52.108;9.358;2023-05-07T01:25:06;23.77;;;20.67;;
64986;SDS011;67903;52.108;9.358;2023-05-07T01:27:58;24.80;;;20.75;;
64986;SDS011;67903;52.108;9.358;2023-05-07T01:30:53;24.02;;;21.50;;
64986;SDS011;67903;52.108;9.358;2023-05-07T01:33:42;24.58;;;21.42;;
64986;SDS011;67903;52.108;9.358;2023-05-07T01:36:32;25.58;;;22.48;;
64986;SDS011;67903;52.108;9.358;2023-05-07T01:39:19;24.02;;;21.42;;
64986;SDS011;67903;52.108;9.358;2023-05-07T01:42:07;25.75;;;23.00;;
64986;SDS011;67903;52.108;9.358;2023-05-07T01:44:54;24.05;;;21.35;;
64986;SDS011;67903;52.108;9.358;2023-05-07T01:47:41;27.02;;;22.42;;
64986;SDS011;67903;52.108;9.358;2023-05-07T01:50:29;24.23;;;21.63;;
64986;SDS011;67903;52.108;9.358;2023-05-07T01:53:18;28.02;;;23.25;;
64986;SDS011;67903;52.108;9.358;2023-05-07T01:56:05;27.88;;;21.88;;
64986;SDS011;67903;52.108;9.358;2023-05-07T01:58:54;26.73;;;23.02;;
64986;SDS011;67903;52.108;9.358;2023-05-07T02:01:42;27.60;;;24.15;;
64986;SDS011;67903;52.108;9.358;2023-05-07T02:04:30;29.38;;;24.25;;
64986;SDS011;67903;52.108;9.358;2023-05-07T02:07:17;27.50;;;23.20;;
64986;SDS011;67903;52.108;9.358;2023-05-07T02:10:04;30.35;;;23.65;;
64986;SDS011;67903;52.108;9.358;2023-05-07T02:12:52;27.77;;;23.13;;
64986;SDS011;67903;52.108;9.358;2023-05-07T02:15:40;29.17;;;24.77;;
64986;SDS011;67903;52.108;9.358;2023-05-07T02:18:27;28.50;;;23.02;;
64986;SDS011;67903;52.108;9.358;2023-05-07T02:21:14;29.08;;;24.13;;
64986;SDS011;67903;52.108;9.358;2023-05-07T02:24:01;30.33;;;24.30;;
64986;SDS011;67903;52.108;9.358;2023-05-07T02:26:48;28.77;;;24.15;;
64986;SDS011;67903;52.108;9.358;2023-05-07T02:29:35;28.35;;;23.52;;
64986;SDS011;67903;52.108;9.358;2023-05-07T02:32:22;30.88;;;25.50;;
64986;SDS011;67903;52.108;9.358;2023-05-07T02:35:10;27.05;;;23.63;;
64986;SDS011;67903;52.108;9.358;2023-05-07T02:37:57;29.58;;;23.02;;
64986;SDS011;67903;52.108;9.358;2023-05-07T02:40:44;30.60;;;25.20;;
64986;SDS011;67903;52.108;9.358;2023-05-07T02:43:32;30.85;;;24.50;;
64986;SDS011;67903;52.108;9.358;2023-05-07T02:46:19;28.88;;;24.70;;
64986;SDS011;67903;52.108;9.358;2023-05-07T02:49:11;31.05;;;23.83;;
64986;SDS011;67903;52.108;9.358;2023-05-07T02:51:59;29.98;;;25.42;;
64986;SDS011;67903;52.108;9.358;2023-05-07T02:54:46;30.35;;;24.90;;
64986;SDS011;67903;52.108;9.358;2023-05-07T02:57:33;32.75;;;25.50;;
64986;SDS011;67903;52.108;9.358;2023-05-07T03:00:21;28.92;;;22.98;;
64986;SDS011;67903;52.108;9.358;2023-05-07T03:03:17;30.58;;;24.13;;
64986;SDS011;67903;52.108;9.358;2023-05-07T03:06:04;29.73;;;24.92;;
64986;SDS011;67903;52.108;9.358;2023-05-07T03:08:52;30.60;;;25.13;;
64986;SDS011;67903;52.108;9.358;2023-05-07T03:11:39;27.02;;;22.73;;
64986;SDS011;67903;52.108;9.358;2023-05-07T03:14:26;28.73;;;23.38;;
64986;SDS011;67903;52.108;9.358;2023-05-07T03:17:14;30.20;;;25.58;;
64986;SDS011;67903;52.108;9.358;2023-05-07T03:20:02;33.50;;;24.77;;
64986;SDS011;67903;52.108;9.358;2023-05-07T03:22:51;30.10;;;22.65;;
64986;SDS011;67903;52.108;9.358;2023-05-07T03:25:38;26.88;;;23.27;;
64986;SDS011;67903;52.108;9.358;2023-05-07T03:28:25;28.73;;;22.75;;
64986;SDS011;67903;52.108;9.358;2023-05-07T03:31:17;30.35;;;24.08;;
64986;SDS011;67903;52.108;9.358;2023-05-07T03:34:05;28.98;;;22.60;;
64986;SDS011;67903;52.108;9.358;2023-05-07T03:36:52;32.78;;;24.02;;
64986;SDS011;67903;52.108;9.358;2023-05-07T03:39:41;30.92;;;23.73;;
64986;SDS011;67903;52.108;9.358;2023-05-07T03:42:29;28.70;;;22.52;;
64986;SDS011;67903;52.108;9.358;2023-05-07T03:45:16;27.77;;;22.48;;
64986;SDS011;67903;52.108;9.358;2023-05-07T03:48:09;27.55;;;22.02;;
64986;SDS011;67903;52.108;9.358;2023-05-07T03:50:57;26.42;;;21.52;;
64986;SDS011;67903;52.108;9.358;2023-05-07T03:53:48;28.42;;;20.50;;
64986;SDS011;67903;52.108;9.358;2023-05-07T03:56:36;26.65;;;21.25;;
64986;SDS011;67903;52.108;9.358;2023-05-07T03:59:23;23.70;;;19.75;;
64986;SDS011;67903;52.108;9.358;2023-05-07T04:02:10;24.48;;;19.42;;
64986;SDS011;67903;52.108;9.358;2023-05-07T04:04:57;27.70;;;20.20;;
64986;SDS011;67903;52.108;9.358;2023-05-07T04:07:44;24.42;;;18.95;;
64986;SDS011;67903;52.108;9.358;2023-05-07T04:10:35;24.05;;;19.63;;
64986;SDS011;67903;52.108;9.358;2023-05-07T04:13:26;23.63;;;19.52;;
64986;SDS011;67903;52.108;9.358;2023-05-07T04:16:14;23.92;;;18.85;;
64986;SDS011;67903;52.108;9.358;2023-05-07T04:19:02;22.25;;;18.42;;
64986;SDS011;67903;52.108;9.358;2023-05-07T04:21:49;20.98;;;17.83;;
64986;SDS011;67903;52.108;9.358;2023-05-07T04:24:36;20.08;;;17.85;;
64986;SDS011;67903;52.108;9.358;2023-05-07T04:27:24;22.10;;;18.00;;
64986;SDS011;67903;52.108;9.358;2023-05-07T04:30:12;20.67;;;16.50;;
64986;SDS011;67903;52.108;9.358;2023-05-07T04:33:00;19.50;;;16.90;;
64986;SDS011;67903;52.108;9.358;2023-05-07T04:35:50;21.02;;;17.15;;
64986;SDS011;67903;52.108;9.358;2023-05-07T04:38:37;19.33;;;16.55;;
64986;SDS011;67903;52.108;9.358;2023-05-07T04:41:25;20.60;;;16.38;;
64986;SDS011;67903;52.108;9.358;2023-05-07T04:44:13;17.73;;;15.63;;
64986;SDS011;67903;52.108;9.358;2023-05-07T04:47:01;18.63;;;15.80;;
64986;SDS011;67903;52.108;9.358;2023-05-07T04:49:49;17.20;;;14.88;;
64986;SDS011;67903;52.108;9.358;2023-05-07T04:52:36;18.20;;;16.30;;
64986;SDS011;67903;52.108;9.358;2023-05-07T04:55:24;15.27;;;13.68;;
64986;SDS011;67903;52.108;9.358;2023-05-07T04:58:11;15.60;;;13.55;;
64986;SDS011;67903;52.108;9.358;2023-05-07T05:01:00;16.40;;;14.65;;
64986;SDS011;67903;52.108;9.358;2023-05-07T05:03:48;16.95;;;14.65;;
64986;SDS011;67903;52.108;9.358;2023-05-07T05:06:36;18.40;;;14.88;;
64986;SDS011;67903;52.108;9.358;2023-05-07T05:09:25;17.05;;;14.73;;
64986;SDS011;67903;52.108;9.358;2023-05-07T05:12:12;17.08;;;15.25;;
64986;SDS011;67903;52.108;9.358;2023-05-07T05:14:59;16.40;;;14.68;;
64986;SDS011;67903;52.108;9.358;2023-05-07T05:17:47;14.90;;;13.30;;
64986;SDS011;67903;52.108;9.358;2023-05-07T05:20:34;15.90;;;14.23;;
64986;SDS011;67903;52.108;9.358;2023-05-07T05:23:22;17.75;;;14.57;;
64986;SDS011;67903;52.108;9.358;2023-05-07T05:26:09;15.88;;;14.18;;
64986;SDS011;67903;52.108;9.358;2023-05-07T05:28:57;16.70;;;14.18;;
64986;SDS011;67903;52.108;9.358;2023-05-07T05:31:46;16.80;;;14.05;;
64986;SDS011;67903;52.108;9.358;2023-05-07T05:34:33;15.40;;;13.90;;
64986;SDS011;67903;52.108;9.358;2023-05-07T05:37:21;15.25;;;13.45;;
64986;SDS011;67903;52.108;9.358;2023-05-07T05:40:09;16.45;;;14.77;;
64986;SDS011;67903;52.108;9.358;2023-05-07T05:42:57;16.35;;;14.20;;
64986;SDS011;67903;52.108;9.358;2023-05-07T05:45:45;16.00;;;14.30;;
64986;SDS011;67903;52.108;9.358;2023-05-07T05:48:32;15.75;;;14.00;;
64986;SDS011;67903;52.108;9.358;2023-05-07T05:51:21;16.42;;;14.57;;
64986;SDS011;67903;52.108;9.358;2023-05-07T05:54:08;15.23;;;13.63;;
64986;SDS011;67903;52.108;9.358;2023-05-07T05:56:56;16.35;;;14.07;;
64986;SDS011;67903;52.108;9.358;2023-05-07T05:59:44;16.52;;;14.80;;
64986;SDS011;67903;52.108;9.358;2023-05-07T06:02:33;16.70;;;14.10;;
64986;SDS011;67903;52.108;9.358;2023-05-07T06:05:21;16.58;;;14.50;;
64986;SDS011;67903;52.108;9.358;2023-05-07T06:08:12;16.00;;;13.75;;
64986;SDS011;67903;52.108;9.358;2023-05-07T06:10:59;15.90;;;14.02;;
64986;SDS011;67903;52.108;9.358;2023-05-07T06:13:51;19.00;;;14.90;;
64986;SDS011;67903;52.108;9.358;2023-05-07T06:16:38;17.02;;;14.05;;
64986;SDS011;67903;52.108;9.358;2023-05-07T06:19:27;16.40;;;13.68;;
64986;SDS011;67903;52.108;9.358;2023-05-07T06:22:16;15.60;;;13.20;;
64986;SDS011;67903;52.108;9.358;2023-05-07T06:25:03;14.65;;;13.00;;
64986;SDS011;67903;52.108;9.358;2023-05-07T06:27:51;15.50;;;13.80;;
64986;SDS011;67903;52.108;9.358;2023-05-07T06:30:38;17.55;;;14.73;;
64986;SDS011;67903;52.108;9.358;2023-05-07T06:33:27;16.83;;;13.38;;
64986;SDS011;67903;52.108;9.358;2023-05-07T06:36:14;16.50;;;13.40;;
64986;SDS011;67903;52.108;9.358;2023-05-07T06:39:02;16.42;;;14.00;;
64986;SDS011;67903;52.108;9.358;2023-05-07T06:41:50;16.15;;;13.65;;
64986;SDS011;67903;52.108;9.358;2023-05-07T06:44:44;17.20;;;13.73;;
64986;SDS011;67903;52.108;9.358;2023-05-07T06:47:33;16.27;;;14.10;;
64986;SDS011;67903;52.108;9.358;2023-05-07T06:50:20;17.55;;;13.73;;
64986;SDS011;67903;52.108;9.358;2023-05-07T06:53:09;15.13;;;13.23;;
64986;SDS011;67903;52.108;9.358;2023-05-07T06:55:56;17.20;;;14.07;;
64986;SDS011;67903;52.108;9.358;2023-05-07T06:58:44;15.52;;;13.00;;
64986;SDS011;67903;52.108;9.358;2023-05-07T07:01:31;17.10;;;14.27;;
64986;SDS011;67903;52.108;9.358;2023-05-07T07:04:20;16.63;;;14.77;;
64986;SDS011;67903;52.108;9.358;2023-05-07T07:07:17;15.15;;;13.52;;
64986;SDS011;67903;52.108;9.358;2023-05-07T07:10:06;15.07;;;13.10;;
64986;SDS011;67903;52.108;9.358;2023-05-07T07:12:54;14.70;;;12.60;;
64986;SDS011;67903;52.108;9.358;2023-05-07T07:15:42;15.77;;;13.45;;
64986;SDS011;67903;52.108;9.358;2023-05-07T07:18:30;14.50;;;12.82;;
64986;SDS011;67903;52.108;9.358;2023-05-07T07:21:18;16.20;;;12.88;;
64986;SDS011;67903;52.108;9.358;2023-05-07T07:24:05;15.80;;;13.20;;
64986;SDS011;67903;52.108;9.358;2023-05-07T07:26:52;14.57;;;13.02;;
64986;SDS011;67903;52.108;9.358;2023-05-07T07:29:40;14.05;;;12.57;;
64986;SDS011;67903;52.108;9.358;2023-05-07T07:32:27;15.23;;;12.52;;
64986;SDS011;67903;52.108;9.358;2023-05-07T07:35:14;15.38;;;11.65;;
64986;SDS011;67903;52.108;9.358;2023-05-07T07:38:03;13.93;;;12.43;;
64986;SDS011;67903;52.108;9.358;2023-05-07T07:40:50;16.88;;;12.90;;
64986;SDS011;67903;52.108;9.358;2023-05-07T07:43:37;16.13;;;13.23;;
64986;SDS011;67903;52.108;9.358;2023-05-07T07:46:25;16.85;;;12.57;;
64986;SDS011;67903;52.108;9.358;2023-05-07T07:49:14;15.35;;;12.23;;
64986;SDS011;67903;52.108;9.358;2023-05-07T07:52:02;14.07;;;12.63;;
64986;SDS011;67903;52.108;9.358;2023-05-07T07:54:51;14.82;;;13.27;;
64986;SDS011;67903;52.108;9.358;2023-05-07T07:57:41;14.38;;;12.18;;
64986;SDS011;67903;52.108;9.358;2023-05-07T08:00:28;14.60;;;11.70;;
64986;SDS011;67903;52.108;9.358;2023-05-07T08:03:16;17.27;;;14.10;;
64986;SDS011;67903;52.108;9.358;2023-05-07T08:06:07;16.67;;;12.63;;
64986;SDS011;67903;52.108;9.358;2023-05-07T08:08:55;16.05;;;13.07;;
64986;SDS011;67903;52.108;9.358;2023-05-07T08:11:42;14.70;;;12.90;;
64986;SDS011;67903;52.108;9.358;2023-05-07T08:14:30;14.02;;;12.45;;
64986;SDS011;67903;52.108;9.358;2023-05-07T08:17:17;16.13;;;13.15;;
64986;SDS011;67903;52.108;9.358;2023-05-07T08:20:05;16.40;;;13.27;;
64986;SDS011;67903;52.108;9.358;2023-05-07T08:22:54;17.10;;;13.25;;
64986;SDS011;67903;52.108;9.358;2023-05-07T08:25:41;13.77;;;12.15;;
64986;SDS011;67903;52.108;9.358;2023-05-07T08:28:32;15.02;;;12.88;;
64986;SDS011;67903;52.108;9.358;2023-05-07T08:31:19;14.75;;;12.77;;
64986;SDS011;67903;52.108;9.358;2023-05-07T08:34:07;13.32;;;11.90;;
64986;SDS011;67903;52.108;9.358;2023-05-07T08:36:59;12.70;;;11.40;;
64986;SDS011;67903;52.108;9.358;2023-05-07T08:39:47;14.48;;;12.05;;
64986;SDS011;67903;52.108;9.358;2023-05-07T08:42:39;12.40;;;11.13;;
64986;SDS011;67903;52.108;9.358;2023-05-07T08:45:29;12.90;;;11.45;;
64986;SDS011;67903;52.108;9.358;2023-05-07T08:48:19;12.63;;;10.95;;
64986;SDS011;67903;52.108;9.358;2023-05-07T08:51:17;13.07;;;11.68;;
64986;SDS011;67903;52.108;9.358;2023-05-07T08:54:05;13.05;;;11.57;;
64986;SDS011;67903;52.108;9.358;2023-05-07T08:56:54;13.85;;;11.23;;
64986;SDS011;67903;52.108;9.358;2023-05-07T08:59:41;13.50;;;11.02;;
64986;SDS011;67903;52.108;9.358;2023-05-07T09:02:29;14.02;;;11.63;;
64986;SDS011;67903;52.108;9.358;2023-05-07T09:05:17;12.18;;;10.65;;
64986;SDS011;67903;52.108;9.358;2023-05-07T09:08:05;14.15;;;11.73;;
64986;SDS011;67903;52.108;9.358;2023-05-07T09:10:54;12.25;;;10.65;;
64986;SDS011;67903;52.108;9.358;2023-05-07T09:13:42;11.77;;;10.43;;
64986;SDS011;67903;52.108;9.358;2023-05-07T09:16:30;11.93;;;10.57;;
64986;SDS011;67903;52.108;9.358;2023-05-07T09:19:22;10.88;;;9.73;;
64986;SDS011;67903;52.108;9.358;2023-05-07T09:22:11;11.68;;;10.48;;
64986;SDS011;67903;52.108;9.358;2023-05-07T09:25:13;11.32;;;10.13;;
64986;SDS011;67903;52.108;9.358;2023-05-07T09:28:02;12.25;;;10.35;;
64986;SDS011;67903;52.108;9.358;2023-05-07T09:30:50;12.10;;;10.00;;
64986;SDS011;67903;52.108;9.358;2023-05-07T09:33:38;12.27;;;10.10;;
64986;SDS011;67903;52.108;9.358;2023-05-07T09:36:28;10.18;;;9.13;;
64986;SDS011;67903;52.108;9.358;2023-05-07T09:39:16;11.30;;;10.10;;
64986;SDS011;67903;52.108;9.358;2023-05-07T09:42:03;11.40;;;9.18;;
64986;SDS011;67903;52.108;9.358;2023-05-07T09:44:54;11.48;;;9.63;;
64986;SDS011;67903;52.108;9.358;2023-05-07T09:47:45;11.23;;;9.65;;
64986;SDS011;67903;52.108;9.358;2023-05-07T09:50:40;10.40;;;9.15;;
64986;SDS011;67903;52.108;9.358;2023-05-07T09:53:38;10.15;;;9.15;;
64986;SDS011;67903;52.108;9.358;2023-05-07T09:56:27;9.82;;;8.82;;
64986;SDS011;67903;52.108;9.358;2023-05-07T09:59:19;9.60;;;8.55;;
64986;SDS011;67903;52.108;9.358;2023-05-07T10:02:08;10.02;;;9.00;;
64986;SDS011;67903;52.108;9.358;2023-05-07T10:05:06;9.52;;;8.55;;
64986;SDS011;67903;52.108;9.358;2023-05-07T10:07:53;10.40;;;8.73;;
64986;SDS011;67903;52.108;9.358;2023-05-07T10:10:42;10.43;;;8.38;;
64986;SDS011;67903;52.108;9.358;2023-05-07T10:13:34;9.60;;;8.65;;
64986;SDS011;67903;52.108;9.358;2023-05-07T10:16:23;9.73;;;8.82;;
64986;SDS011;67903;52.108;9.358;2023-05-07T10:19:10;9.68;;;8.68;;
64986;SDS011;67903;52.108;9.358;2023-05-07T10:22:04;9.35;;;8.50;;
64986;SDS011;67903;52.108;9.358;2023-05-07T10:24:57;9.30;;;8.40;;
64986;SDS011;67903;52.108;9.358;2023-05-07T10:27:49;9.75;;;8.75;;
64986;SDS011;67903;52.108;9.358;2023-05-07T10:30:47;9.32;;;8.43;;
64986;SDS011;67903;52.108;9.358;2023-05-07T10:34:07;9.88;;;8.88;;
64986;SDS011;67903;52.108;9.358;2023-05-07T10:37:00;10.38;;;9.38;;
64986;SDS011;67903;52.108;9.358;2023-05-07T10:39:49;10.63;;;9.52;;
64986;SDS011;67903;52.108;9.358;2023-05-07T10:42:38;9.95;;;9.05;;
64986;SDS011;67903;52.108;9.358;2023-05-07T10:45:26;9.98;;;8.98;;
64986;SDS011;67903;52.108;9.358;2023-05-07T10:48:16;10.10;;;9.20;;
64986;SDS011;67903;52.108;9.358;2023-05-07T10:51:20;9.23;;;8.20;;
64986;SDS011;67903;52.108;9.358;2023-05-07T10:54:19;9.18;;;8.30;;
64986;SDS011;67903;52.108;9.358;2023-05-07T10:57:34;8.52;;;7.75;;
64986;SDS011;67903;52.108;9.358;2023-05-07T11:03:25;8.90;;;8.10;;
64986;SDS011;67903;52.108;9.358;2023-05-07T11:06:18;9.05;;;8.25;;
64986;SDS011;67903;52.108;9.358;2023-05-07T11:09:21;9.52;;;8.63;;
64986;SDS011;67903;52.108;9.358;2023-05-07T11:12:16;8.90;;;7.80;;
64986;SDS011;67903;52.108;9.358;2023-05-07T11:15:36;9.00;;;8.20;;
64986;SDS011;67903;52.108;9.358;2023-05-07T11:18:52;8.88;;;7.97;;
64986;SDS011;67903;52.108;9.358;2023-05-07T11:21:49;8.30;;;7.47;;
64986;SDS011;67903;52.108;9.358;2023-05-07T11:24:55;8.73;;;7.93;;
64986;SDS011;67903;52.108;9.358;2023-05-07T11:27:42;8.65;;;7.70;;
64986;SDS011;67903;52.108;9.358;2023-05-07T11:30:31;8.90;;;8.02;;
64986;SDS011;67903;52.108;9.358;2023-05-07T11:33:18;9.15;;;8.23;;
64986;SDS011;67903;52.108;9.358;2023-05-07T11:36:08;8.70;;;7.90;;
64986;SDS011;67903;52.108;9.358;2023-05-07T11:39:01;7.80;;;7.07;;
64986;SDS011;67903;52.108;9.358;2023-05-07T11:41:49;9.27;;;8.48;;
64986;SDS011;67903;52.108;9.358;2023-05-07T11:44:42;8.57;;;7.78;;
64986;SDS011;67903;52.108;9.358;2023-05-07T11:47:30;8.75;;;7.95;;
64986;SDS011;67903;52.108;9.358;2023-05-07T11:50:17;9.77;;;8.88;;
64986;SDS011;67903;52.108;9.358;2023-05-07T11:53:08;8.52;;;7.68;;
64986;SDS011;67903;52.108;9.358;2023-05-07T11:55:55;7.85;;;7.05;;
64986;SDS011;67903;52.108;9.358;2023-05-07T11:58:43;9.60;;;8.65;;
64986;SDS011;67903;52.108;9.358;2023-05-07T12:01:31;8.70;;;7.90;;
64986;SDS011;67903;52.108;9.358;2023-05-07T12:04:21;7.80;;;7.00;;
64986;SDS011;67903;52.108;9.358;2023-05-07T12:07:12;7.78;;;7.07;;
64986;SDS011;67903;52.108;9.358;2023-05-07T12:10:06;8.35;;;7.63;;
64986;SDS011;67903;52.108;9.358;2023-05-07T12:12:53;9.82;;;8.82;;
64986;SDS011;67903;52.108;9.358;2023-05-07T12:15:41;8.85;;;8.10;;
64986;SDS011;67903;52.108;9.358;2023-05-07T12:18:29;13.48;;;11.73;;
64986;SDS011;67903;52.108;9.358;2023-05-07T12:21:17;8.65;;;7.95;;
64986;SDS011;67903;52.108;9.358;2023-05-07T12:24:04;11.25;;;9.55;;
64986;SDS011;67903;52.108;9.358;2023-05-07T12:26:52;9.73;;;8.82;;
64986;SDS011;67903;52.108;9.358;2023-05-07T12:29:39;8.48;;;7.65;;
64986;SDS011;67903;52.108;9.358;2023-05-07T12:32:31;12.20;;;10.38;;
64986;SDS011;67903;52.108;9.358;2023-05-07T12:35:30;9.50;;;8.70;;
64986;SDS011;67903;52.108;9.358;2023-05-07T12:38:18;8.55;;;7.75;;
64986;SDS011;67903;52.108;9.358;2023-05-07T12:41:06;9.68;;;8.77;;
64986;SDS011;67903;52.108;9.358;2023-05-07T12:43:56;11.10;;;10.00;;
64986;SDS011;67903;52.108;9.358;2023-05-07T12:46:44;9.05;;;8.25;;
64986;SDS011;67903;52.108;9.358;2023-05-07T12:49:34;8.10;;;7.40;;
64986;SDS011;67903;52.108;9.358;2023-05-07T12:52:24;9.32;;;8.35;;
64986;SDS011;67903;52.108;9.358;2023-05-07T12:55:12;9.00;;;8.23;;
64986;SDS011;67903;52.108;9.358;2023-05-07T12:58:01;9.20;;;8.32;;
64986;SDS011;67903;52.108;9.358;2023-05-07T13:00:49;9.15;;;8.30;;
64986;SDS011;67903;52.108;9.358;2023-05-07T13:03:37;8.60;;;7.80;;
64986;SDS011;67903;52.108;9.358;2023-05-07T13:06:25;9.10;;;8.20;;
64986;SDS011;67903;52.108;9.358;2023-05-07T13:09:12;9.48;;;8.50;;
64986;SDS011;67903;52.108;9.358;2023-05-07T13:11:59;10.48;;;9.38;;
64986;SDS011;67903;52.108;9.358;2023-05-07T13:14:48;10.20;;;9.18;;
64986;SDS011;67903;52.108;9.358;2023-05-07T13:17:35;10.80;;;9.38;;
64986;SDS011;67903;52.108;9.358;2023-05-07T13:20:22;9.52;;;8.63;;
64986;SDS011;67903;52.108;9.358;2023-05-07T13:23:09;8.55;;;7.78;;
64986;SDS011;67903;52.108;9.358;2023-05-07T13:25:59;8.82;;;8.05;;
64986;SDS011;67903;52.108;9.358;2023-05-07T13:28:54;9.75;;;8.85;;
64986;SDS011;67903;52.108;9.358;2023-05-07T13:31:41;8.90;;;8.10;;
64986;SDS011;67903;52.108;9.358;2023-05-07T13:34:30;8.30;;;7.60;;
64986;SDS011;67903;52.108;9.358;2023-05-07T13:37:17;8.60;;;7.90;;
64986;SDS011;67903;52.108;9.358;2023-05-07T13:40:04;8.85;;;8.05;;
64986;SDS011;67903;52.108;9.358;2023-05-07T13:42:53;9.02;;;8.23;;
64986;SDS011;67903;52.108;9.358;2023-05-07T13:45:40;8.00;;;7.13;;
64986;SDS011;67903;52.108;9.358;2023-05-07T13:48:27;8.68;;;7.57;;
64986;SDS011;67903;52.108;9.358;2023-05-07T13:51:15;8.48;;;7.78;;
64986;SDS011;67903;52.108;9.358;2023-05-07T13:54:02;8.32;;;7.50;;
64986;SDS011;67903;52.108;9.358;2023-05-07T13:56:49;8.35;;;7.65;;
64986;SDS011;67903;52.108;9.358;2023-05-07T13:59:36;7.80;;;7.13;;
64986;SDS011;67903;52.108;9.358;2023-05-07T14:02:23;8.10;;;7.30;;
64986;SDS011;67903;52.108;9.358;2023-05-07T14:05:11;6.68;;;6.18;;
64986;SDS011;67903;52.108;9.358;2023-05-07T14:07:59;7.18;;;6.57;;
64986;SDS011;67903;52.108;9.358;2023-05-07T14:10:46;6.50;;;5.95;;
64986;SDS011;67903;52.108;9.358;2023-05-07T14:13:33;6.80;;;6.20;;
64986;SDS011;67903;52.108;9.358;2023-05-07T14:16:21;8.07;;;7.28;;
64986;SDS011;67903;52.108;9.358;2023-05-07T14:19:08;6.57;;;5.97;;
64986;SDS011;67903;52.108;9.358;2023-05-07T14:21:56;6.28;;;5.78;;
64986;SDS011;67903;52.108;9.358;2023-05-07T14:24:45;6.45;;;5.95;;
64986;SDS011;67903;52.108;9.358;2023-05-07T14:27:38;6.97;;;6.00;;
64986;SDS011;67903;52.108;9.358;2023-05-07T14:30:25;6.85;;;6.25;;
64986;SDS011;67903;52.108;9.358;2023-05-07T14:33:12;6.25;;;5.65;;
64986;SDS011;67903;52.108;9.358;2023-05-07T14:36:00;9.15;;;8.35;;
64986;SDS011;67903;52.108;9.358;2023-05-07T14:38:47;6.88;;;6.28;;
64986;SDS011;67903;52.108;9.358;2023-05-07T14:41:34;6.97;;;6.28;;
64986;SDS011;67903;52.108;9.358;2023-05-07T14:44:21;7.07;;;6.47;;
64986;SDS011;67903;52.108;9.358;2023-05-07T14:47:10;6.90;;;6.28;;
64986;SDS011;67903;52.108;9.358;2023-05-07T14:49:57;7.30;;;6.65;;
64986;SDS011;67903;52.108;9.358;2023-05-07T14:52:44;7.32;;;6.55;;
64986;SDS011;67903;52.108;9.358;2023-05-07T14:55:31;7.07;;;6.57;;
64986;SDS011;67903;52.108;9.358;2023-05-07T14:58:21;6.82;;;6.22;;
64986;SDS011;67903;52.108;9.358;2023-05-07T15:01:08;6.75;;;6.25;;
64986;SDS011;67903;52.108;9.358;2023-05-07T15:03:55;7.00;;;6.40;;
64986;SDS011;67903;52.108;9.358;2023-05-07T15:06:42;6.70;;;6.20;;
64986;SDS011;67903;52.108;9.358;2023-05-07T15:09:29;8.38;;;7.75;;
64986;SDS011;67903;52.108;9.358;2023-05-07T15:12:16;7.10;;;6.60;;
64986;SDS011;67903;52.108;9.358;2023-05-07T15:15:03;7.07;;;6.63;;
64986;SDS011;67903;52.108;9.358;2023-05-07T15:17:51;6.82;;;6.30;;
64986;SDS011;67903;52.108;9.358;2023-05-07T15:20:38;7.13;;;6.63;;
64986;SDS011;67903;52.108;9.358;2023-05-07T15:23:25;7.65;;;7.05;;
64986;SDS011;67903;52.108;9.358;2023-05-07T15:26:13;6.93;;;6.43;;
64986;SDS011;67903;52.108;9.358;2023-05-07T15:29:00;7.88;;;7.28;;
64986;SDS011;67903;52.108;9.358;2023-05-07T15:31:49;6.93;;;6.35;;
64986;SDS011;67903;52.108;9.358;2023-05-07T15:34:37;7.90;;;7.30;;
64986;SDS011;67903;52.108;9.358;2023-05-07T15:37:24;7.13;;;6.53;;
64986;SDS011;67903;52.108;9.358;2023-05-07T15:40:11;8.00;;;7.30;;
64986;SDS011;67903;52.108;9.358;2023-05-07T15:42:59;7.47;;;6.78;;
64986;SDS011;67903;52.108;9.358;2023-05-07T15:45:46;7.95;;;7.28;;
64986;SDS011;67903;52.108;9.358;2023-05-07T15:48:33;7.65;;;7.00;;
64986;SDS011;67903;52.108;9.358;2023-05-07T15:51:21;8.40;;;7.78;;
64986;SDS011;67903;52.108;9.358;2023-05-07T15:54:09;8.40;;;7.57;;
64986;SDS011;67903;52.108;9.358;2023-05-07T15:56:56;9.38;;;8.57;;
64986;SDS011;67903;52.108;9.358;2023-05-07T15:59:43;9.88;;;8.95;;
64986;SDS011;67903;52.108;9.358;2023-05-07T16:02:30;9.27;;;8.35;;
64986;SDS011;67903;52.108;9.358;2023-05-07T16:05:17;9.65;;;8.85;;
64986;SDS011;67903;52.108;9.358;2023-05-07T16:08:04;9.27;;;8.38;;
64986;SDS011;67903;52.108;9.358;2023-05-07T16:10:51;9.45;;;8.65;;
64986;SDS011;67903;52.108;9.358;2023-05-07T16:13:41;10.32;;;9.43;;
64986;SDS011;67903;52.108;9.358;2023-05-07T16:16:31;9.98;;;9.18;;
64986;SDS011;67903;52.108;9.358;2023-05-07T16:19:19;11.43;;;10.32;;
64986;SDS011;67903;52.108;9.358;2023-05-07T16:22:06;10.70;;;9.77;;
64986;SDS011;67903;52.108;9.358;2023-05-07T16:24:53;11.50;;;10.27;;
64986;SDS011;67903;52.108;9.358;2023-05-07T16:27:40;9.70;;;8.85;;
64986;SDS011;67903;52.108;9.358;2023-05-07T16:30:27;11.35;;;10.35;;
64986;SDS011;67903;52.108;9.358;2023-05-07T16:33:14;11.32;;;10.40;;
64986;SDS011;67903;52.108;9.358;2023-05-07T16:36:01;10.65;;;9.75;;
64986;SDS011;67903;52.108;9.358;2023-05-07T16:38:48;10.52;;;9.60;;
64986;SDS011;67903;52.108;9.358;2023-05-07T16:41:36;13.30;;;12.00;;